Weather History for KAHQ - November, 2014

Change the Weather History Date:

Monday, November 10, 2014

  Actual Average (KLNK) Record (KLNK)
Temperature  
Mean Temperature 39 °F 42 °F  
Max Temperature 55 °F 54 °F 79 °F (1927)
Min Temperature 23 °F 30 °F 4 °F (1986)
Degree Days  
Heating Degree Days 26 23  
Month to date heating degree days 207  
Since 1 July heating degree days 686  
Cooling Degree Days 0 0  
Month to date cooling degree days 0  
Year to date cooling degree days 1173  
Moisture  
Dew Point 31 °F    
Average Humidity 77    
Maximum Humidity 90    
Minimum Humidity 54    
Precipitation  
Precipitation 0.00 in 0.05 in 1.83 in (1915)
Month to date precipitation 0.54  
Year to date precipitation 27.11  
Snow  
Snow 0.00 in 0.00 in - ()
Month to date snowfall 0.4  
Since 1 July snowfall 1.1  
Snow Depth -    
Sea Level Pressure  
Sea Level Pressure 29.59 in    
Wind  
Wind Speed 13 mph (NNE)    
Max Wind Speed 37 mph    
Max Gust Speed 46 mph    
Visibility 9 miles    
Events Snow    
T = Trace of Precipitation, MM = Missing Value Source: NWS Daily Summary

Daily Weather History Graph

Daily Weather History Graph

Search for Another Location

Airport or City:

Trip Planner

Search our weather history database for the weather conditions in past years. The results will help you decide how hot, cold, wet, or windy it might be!

Date:

Astronomy

Nov. 10, 2014 Rise Set
Actual Time 7:08 AM CST 5:11 PM CST
Civil Twilight 6:39 AM CST 5:40 PM CST
Nautical Twilight 6:06 AM CST 6:13 PM CST
Astronomical Twilight 5:33 AM CST 6:46 PM CST
Moon 8:39 PM CST (11/10) 10:32 AM CST (11/10)
Length of Visible Light 11h 01m
Length of Day
10h 03m
Waning Gibbous, 84% of the Moon is Illuminated
Nov 10
Waning Gibbous
Nov 14
Last Quarter
Nov 22
New
Nov 29
First Quarter
Dec 6
Full

Hourly Weather History & Observations

Time (CST) Temp. Windchill Dew Point Humidity Pressure Visibility Wind Dir Wind Speed Gust Speed Precip Events Conditions
12:15 AM 42.1 °F 40.2 °F 34.9 °F 76% 29.53 in 10.0 mi ESE 3.5 mph - N/A   Clear
12:35 AM 42.6 °F 37.2 °F 36.0 °F 77% 29.51 in 10.0 mi ESE 9.2 mph - N/A   Clear
12:55 AM 44.6 °F 40.2 °F 36.7 °F 74% 29.50 in 10.0 mi ESE 8.1 mph - N/A   Clear
1:15 AM 43.9 °F 39.9 °F 36.9 °F 76% 29.49 in 10.0 mi ESE 6.9 mph - N/A   Clear
1:35 AM 43.2 °F 39.7 °F 36.5 °F 77% 29.48 in 10.0 mi SE 5.8 mph - N/A   Clear
1:55 AM 42.3 °F 39.4 °F 36.5 °F 80% 29.48 in 10.0 mi ESE 4.6 mph - N/A   Clear
2:15 AM 42.8 °F 38.0 °F 37.0 °F 80% 29.46 in 10.0 mi SE 8.1 mph - N/A   Clear
2:35 AM 43.3 °F 38.1 °F 37.4 °F 80% 29.45 in 10.0 mi SE 9.2 mph - N/A   Clear
2:55 AM 43.3 °F 38.1 °F 37.4 °F 80% 29.44 in 10.0 mi SE 9.2 mph - N/A   Clear
3:15 AM 42.4 °F 38.1 °F 37.4 °F 82% 29.43 in 10.0 mi ESE 6.9 mph - N/A   Clear
3:35 AM 42.8 °F 37.5 °F 37.9 °F 83% 29.41 in 10.0 mi SE 9.2 mph - N/A   Clear
3:55 AM 42.3 °F 38.6 °F 37.6 °F 83% 29.41 in 10.0 mi SE 5.8 mph - N/A   Clear
4:15 AM 41.9 °F 35.9 °F 37.8 °F 85% 29.38 in 10.0 mi SE 10.4 mph - N/A   Clear
4:35 AM 42.6 °F 37.2 °F 38.5 °F 85% 29.38 in 10.0 mi SE 9.2 mph - N/A   Clear
4:55 AM 42.1 °F 39.2 °F 38.3 °F 86% 29.38 in 10.0 mi SE 4.6 mph - N/A   Clear
5:15 AM 41.9 °F 35.9 °F 38.3 °F 87% 29.38 in 10.0 mi SE 10.4 mph - N/A   Clear
5:35 AM 41.2 °F 36.0 °F 37.9 °F 88% 29.37 in 10.0 mi SE 8.1 mph - N/A   Clear
5:55 AM 41.5 °F 35.9 °F 38.3 °F 88% 29.36 in 10.0 mi SE 9.2 mph - N/A   Clear
6:15 AM 41.7 °F 37.3 °F 38.3 °F 88% 29.36 in 10.0 mi SSE 6.9 mph - N/A   Clear
6:35 AM 40.3 °F 36.3 °F 37.2 °F 89% 29.36 in 10.0 mi SSE 5.8 mph - N/A   Clear
6:55 AM 39.4 °F 36.1 °F 36.5 °F 89% 29.36 in 10.0 mi SSE 4.6 mph - N/A   Clear
7:15 AM 39.6 °F 34.7 °F 36.9 °F 90% 29.35 in 10.0 mi SSE 6.9 mph - N/A   Clear
7:35 AM 41.0 °F 37.1 °F 37.8 °F 88% 29.36 in 10.0 mi SSE 5.8 mph - N/A   Clear
7:55 AM 40.1 °F 36.9 °F 37.2 °F 89% 29.36 in 10.0 mi SSE 4.6 mph - N/A   Clear
8:15 AM 42.8 °F 38.6 °F 39.2 °F 87% 29.36 in 10.0 mi SSE 6.9 mph - N/A   Clear
8:35 AM 43.7 °F 39.7 °F 39.7 °F 86% 29.35 in 10.0 mi SSE 6.9 mph - N/A   Clear
8:55 AM 45.7 °F 42.0 °F 40.8 °F 83% 29.37 in 10.0 mi South 6.9 mph - N/A   Clear
9:15 AM 47.1 °F - 41.4 °F 80% 29.38 in 10.0 mi South 3.5 mph - N/A   Clear
9:35 AM 49.1 °F - 41.7 °F 76% 29.38 in 10.0 mi WSW 5.8 mph - N/A   Clear
9:55 AM 50.9 °F - 42.6 °F 73% 29.38 in 10.0 mi Calm Calm - N/A   Clear
10:15 AM 52.5 °F - 43.5 °F 71% 29.38 in 10.0 mi West 3.5 mph - N/A   Clear
10:35 AM 54.1 °F - 43.0 °F 66% 29.39 in 10.0 mi West 5.8 mph - N/A   Scattered Clouds
10:55 AM 55.2 °F - 39.9 °F 56% 29.41 in 10.0 mi NW 15.0 mph 21.9 mph N/A   Scattered Clouds
11:15 AM 55.8 °F - 39.4 °F 54% 29.41 in 10.0 mi NW 23.0 mph 31.1 mph N/A   Mostly Cloudy
11:35 AM 52.7 °F - 37.9 °F 57% 29.42 in 10.0 mi NNW 18.4 mph 29.9 mph N/A   Scattered Clouds
11:55 AM 49.6 °F - 36.1 °F 60% 29.44 in 10.0 mi NNW 20.7 mph 31.1 mph N/A   Scattered Clouds
12:15 PM 46.8 °F - 34.9 °F 63% 29.45 in 10.0 mi NNW 25.3 mph 35.7 mph N/A   Overcast
12:35 PM 44.1 °F 34.8 °F 33.3 °F 66% 29.46 in 10.0 mi NNW 25.3 mph 33.4 mph N/A   Overcast
12:55 PM 42.8 °F 33.8 °F 32.0 °F 66% 29.48 in 10.0 mi NNW 21.9 mph 32.2 mph N/A   Overcast
1:15 PM 41.0 °F 30.7 °F 31.6 °F 69% 29.50 in 10.0 mi NNW 25.3 mph 32.2 mph N/A   Overcast
1:35 PM 39.6 °F 28.5 °F 30.4 °F 70% 29.52 in 10.0 mi NNW 26.5 mph 34.5 mph N/A   Overcast
1:55 PM 36.7 °F 25.4 °F 29.3 °F 75% 29.54 in 7.0 mi NNW 23.0 mph 32.2 mph N/A   Overcast
2:15 PM 35.6 °F 24.5 °F 29.1 °F 77% 29.57 in 7.0 mi North 20.7 mph 33.4 mph N/A   Overcast
2:35 PM 34.0 °F 21.3 °F 28.2 °F 79% 29.60 in 10.0 mi NNW 25.3 mph 32.2 mph N/A   Overcast
2:55 PM 33.3 °F 21.5 °F 27.9 °F 81% 29.63 in 7.0 mi NNW 20.7 mph 31.1 mph N/A   Overcast
3:15 PM 32.9 °F 20.1 °F 27.1 °F 79% 29.66 in 7.0 mi NNW 24.2 mph 36.8 mph N/A   Overcast
3:35 PM 32.4 °F 18.9 °F 26.2 °F 78% 29.68 in 7.0 mi NNW 26.5 mph 35.7 mph N/A   Overcast
3:55 PM 32.2 °F 18.4 °F 25.9 °F 78% 29.69 in 7.0 mi NNW 27.6 mph 35.7 mph N/A   Overcast
4:15 PM 32.0 °F 16.3 °F 25.7 °F 78% 29.70 in 5.0 mi NNW 36.8 mph 40.3 mph N/A   Haze
4:35 PM 32.0 °F 17.9 °F 25.2 °F 76% 29.72 in 10.0 mi North 28.8 mph 40.3 mph N/A   Overcast
4:55 PM 31.8 °F 17.9 °F 24.8 °F 75% 29.72 in 10.0 mi North 27.6 mph 35.7 mph N/A   Overcast
5:15 PM 31.1 °F 16.4 °F 23.7 °F 74% 29.76 in 10.0 mi North 29.9 mph 36.8 mph N/A   Overcast
5:35 PM 31.1 °F 18.0 °F 23.0 °F 72% 29.80 in 10.0 mi NNW 23.0 mph 34.5 mph N/A   Overcast
5:55 PM 31.1 °F 17.4 °F 22.8 °F 71% 29.81 in 10.0 mi NNW 25.3 mph 34.5 mph N/A   Overcast
6:15 PM 30.6 °F 16.4 °F 22.1 °F 71% 29.82 in 10.0 mi NNW 26.5 mph 38.0 mph N/A   Overcast
6:35 PM 30.6 °F 15.7 °F 21.9 °F 70% 29.85 in 10.0 mi NNW 29.9 mph 36.8 mph N/A   Overcast
6:55 PM 30.6 °F 15.2 °F 21.9 °F 70% 29.87 in 10.0 mi NNW 32.2 mph 42.6 mph N/A   Overcast
7:15 PM 30.2 °F 15.4 °F 21.7 °F 71% 29.88 in 10.0 mi North 28.8 mph 39.1 mph N/A   Overcast
7:35 PM 30.2 °F 15.9 °F 21.7 °F 71% 29.89 in 10.0 mi North 26.5 mph 35.7 mph N/A   Overcast
7:55 PM 30.0 °F 15.4 °F 21.2 °F 70% 29.91 in 10.0 mi North 27.6 mph 38.0 mph N/A   Overcast
8:15 PM 29.7 °F 15.2 °F 21.2 °F 71% 29.90 in 10.0 mi North 26.5 mph 38.0 mph N/A   Overcast
8:35 PM 29.3 °F 13.3 °F 19.9 °F 68% 29.92 in 10.0 mi NNW 33.4 mph 43.7 mph N/A   Overcast
8:55 PM 28.4 °F 12.7 °F 19.6 °F 70% 29.93 in 10.0 mi NNW 29.9 mph 46.0 mph N/A   Overcast
9:15 PM 27.5 °F 10.8 °F 18.3 °F 68% 29.94 in 10.0 mi NNW 33.4 mph 42.6 mph N/A   Overcast
9:35 PM 26.4 °F 9.5 °F 18.3 °F 71% 29.95 in 10.0 mi North 32.2 mph 39.1 mph N/A   Overcast
9:55 PM 26.4 °F 9.5 °F 18.7 °F 73% 29.97 in 7.0 mi North 32.2 mph 42.6 mph N/A Snow Light Snow
10:15 PM 24.8 °F 10.3 °F 20.7 °F 84% 29.98 in 1.2 mi North 20.7 mph 31.1 mph N/A Snow Light Snow
10:35 PM 24.4 °F - 20.7 °F 86% 30.00 in 1.2 mi North - - N/A Snow Light Snow
10:55 PM 23.9 °F 6.4 °F 19.8 °F 84% 30.00 in 1.8 mi NNW 31.1 mph 38.0 mph N/A Snow Light Snow
11:15 PM 23.7 °F 7.9 °F 19.4 °F 84% 30.02 in 1.5 mi NNW 24.2 mph 35.7 mph N/A Snow Light Snow
11:35 PM 23.4 °F - 19.4 °F 85% 30.03 in 0.8 mi North - - N/A Snow Snow
11:55 PM 23.0 °F 6.6 °F 19.0 °F 85% 30.04 in 1.2 mi NNW 25.3 mph 33.4 mph N/A Snow Light Snow